Järjestuse muutmiseks klõpsa vastava veeru päisele
KM sees väljas

Filtreeri

Hind
0 € - 10 €
Saadavus
Tootenimi Lisatudsort ascending Tootekood Värv Hind Laoseis Ühik
Tempel "Makstud sularahas" 22.03.2019 PTTEM41153 - 15.00 0 tk
Seinakell 60cm ümmargune hõbedase raamiga Pearl 22.03.2019 THKEL0088590 - 110.00 0 tk
Pikendusjuhe 3-osaline 5m must 15.03.2019 THKAB77000 - 9.50 16 tk
Kiletasku A4+ köidetav 220x300 Bantex (2062) 50tk pakis 15.03.2019 KAKIL16018 - 12.00 2 pakk
Kassett HP CE401AC sinine 15.03.2019 KUKAS97491 280.00 0 tk
Kassett HP CE402YC kollane 15.03.2019 KUKAS97501 280.00 0 tk
Etiketiprinter Brother PTH107BTB 15.03.2019 THDYM164605 - 34.00 4 tk
Kohvitops 300ml valge biolagunev 50tk pakis 14.03.2019 MU---36381 - 4.55 20 pk
Arvuti kõvaketas väline My Passport Ultra Metal 2TB USB3.0/2.0 White-Gold HDD 2,5inch RTL 14.03.2019 THART88161 - 190.00 0 tk
Paberi trimmer lõikeliist A4 3tk pakis Fellowes mudelitele 13.03.2019 THGIL62014 - 11.00 0 tk
Pappkast kaanega 143x136x352 Leitz Click & Store must CD/DVD 12.03.2019 ARKAR9211251 - 12.00 0 tk
Kohvilusikas 25tk pakis plastist biolagunevad Smile 12.03.2019 MU---000719 - 1.80 24 pakk
Nuga ühekordne 25tk pakis plastist biolagunevad Smile 12.03.2019 MU---000721 - 1.80 23 pakk
Suhkruroost taldrik 18cm valge 10tk pakis Biolagunevad 12.03.2019 MU---3601510 1.85 24 pk
Suhkruroost taldrik 22cm valge 10tk pakis Biolagunevad 12.03.2019 MU---3601511 2.50 6 pk
Plastkahvel 25tk pakis biolagunevad Smile 12.03.2019 MU---360951 - 1.80 24 pk
Supikauss 500ml 10tk pakis Biolagunevad 12.03.2019 MU---3657015 - 3.00 0 pk
Kalligraafiline marker Edding 753 kuldne 1-2,5mm 11.03.2019 KIMAR87994 - 5.90 0 tk
Büroomööbel Töölaud Easy Duo elektriliselt reguleeritav 1600x800mm valge 11.03.2019 KOMOB10108231 - 650.00 0 tk
Lint Brother analoog TZE-231 12mm valge/must 11.03.2019 KULIN720181 - 15.00 0 tk
Lint Brother analoog TZE-211 6mm valge/must 11.03.2019 KULIN720410 - 12.00 10 tk
Kaabel 2.0 USB A - C 1,5m 09.03.2019 THKAB331093 - 18.00 0 tk
Konventer HDMI, USB-C, 2xUSB-A 09.03.2019 THKAB70895 - 79.00 0 tk
Jagaja USB 2.0 hub 4x 09.03.2019 THKAB70896 - 9.00 0 tk
Pastapliiats R-301 Classic sinine tint 1,0mm 09.03.2019 KIPAS300991 0.15 0 tk
Pastapliiats R-301 Classic must tint 1,0mm 09.03.2019 KIPAS300992 0.15 0 tk
Geelpliiats Uni-Ball UM-120 pronks 09.03.2019 KITIN1078 2.15 10 tk
Kaabel USB C - C 1,4m 09.03.2019 THKAB331092 - 16.00 0 tk
Puhastusvahend tualetti Bref Duo Aktiv Lemon geel klambriga 50ml 07.03.2019 THPUH82042 - 5.90 5 tk
Puhastusvahend tualetti Bref Active Blue Fresh Flowers klambriga 50g 07.03.2019 THPUH82043 - 5.90 0 tk
MasterCard VISA